createdAt,value
2022-11-16T00:02:40.105Z,93191.00
2022-11-16T00:06:42.026Z,93182.00
2022-11-16T00:10:47.723Z,93180.00
2022-11-16T00:15:15.415Z,93166.00
2022-11-16T00:19:17.722Z,93164.00
2022-11-16T00:23:19.902Z,93159.00
2022-11-16T00:27:21.785Z,93137.00
2022-11-16T00:31:24.504Z,93143.00
2022-11-16T00:35:55.194Z,93153.00
2022-11-16T00:39:57.085Z,93151.00
2022-11-16T00:43:59.047Z,93144.00
2022-11-16T00:48:01.098Z,93145.00
2022-11-16T00:52:10.090Z,93160.00
2022-11-16T00:56:13.101Z,93153.00
2022-11-16T01:00:21.084Z,93158.00
2022-11-16T01:04:49.286Z,93155.00
2022-11-16T01:08:51.598Z,93159.00
2022-11-16T01:12:55.083Z,93155.00
2022-11-16T01:16:56.988Z,93145.00
2022-11-16T01:20:59.037Z,93134.00
2022-11-16T01:25:01.317Z,93135.00
2022-11-16T01:29:03.253Z,93132.00
2022-11-16T01:33:16.763Z,93118.00
2022-11-16T01:37:20.220Z,93105.00
2022-11-16T01:41:24.649Z,93106.00
2022-11-16T01:51:31.522Z,93060.00
2022-11-16T01:56:04.832Z,93064.00
2022-11-16T02:00:26.499Z,93047.00
2022-11-16T02:04:47.682Z,93033.00
2022-11-16T02:09:54.079Z,93038.00
2022-11-16T02:13:59.978Z,93030.00
2022-11-16T02:18:26.908Z,93043.00
2022-11-16T02:23:01.528Z,93026.00
2022-11-16T02:27:40.339Z,93028.00
2022-11-16T02:32:20.740Z,93018.00
2022-11-16T02:36:43.130Z,93014.00
2022-11-16T02:40:53.802Z,93005.00
2022-11-16T02:45:29.425Z,93007.00
2022-11-16T02:49:36.725Z,93005.00
2022-11-16T02:54:02.786Z,93017.00
2022-11-16T02:58:09.747Z,93013.00
2022-11-16T03:02:36.517Z,93014.00
2022-11-16T03:07:07.720Z,93004.00
2022-11-16T03:15:53.191Z,92995.00
2022-11-16T03:20:16.357Z,92986.00
2022-11-16T03:29:13.449Z,92983.00
2022-11-16T03:33:24.282Z,92980.00
2022-11-16T03:37:29.050Z,92975.00
2022-11-16T03:41:35.757Z,92972.00
2022-11-16T03:45:38.390Z,92962.00
2022-11-16T03:49:45.511Z,92955.00
2022-11-16T03:53:49.343Z,92955.00
2022-11-16T03:57:51.410Z,92944.00
2022-11-16T04:01:53.467Z,92941.00
2022-11-16T04:06:14.098Z,92938.00
2022-11-16T04:10:44.824Z,92960.00
2022-11-16T04:15:11.177Z,92947.00
2022-11-16T04:19:45.989Z,92935.00
2022-11-16T04:24:18.973Z,92936.00
2022-11-16T04:28:34.980Z,92929.00
2022-11-16T04:32:57.850Z,92926.00
2022-11-16T04:37:37.372Z,92919.00
2022-11-16T04:42:03.281Z,92918.00
2022-11-16T04:46:35.190Z,92918.00
2022-11-16T04:50:43.363Z,92919.00
2022-11-16T04:54:52.649Z,92910.00
2022-11-16T04:58:54.818Z,92899.00
2022-11-16T05:03:01.536Z,92897.00
2022-11-16T05:07:11.299Z,92884.00
2022-11-16T05:11:16.683Z,92898.00
2022-11-16T05:15:19.932Z,92907.00
2022-11-16T05:20:02.069Z,92904.00
2022-11-16T05:24:35.573Z,92904.00
2022-11-16T05:28:45.529Z,92899.00
2022-11-16T05:32:48.583Z,92897.00
2022-11-16T05:36:54.339Z,92909.00
2022-11-16T05:40:56.565Z,92885.00
2022-11-16T05:44:58.455Z,92888.00
2022-11-16T05:50:05.645Z,92874.00
2022-11-16T05:54:39.110Z,92877.00
2022-11-16T05:58:42.314Z,92879.00
2022-11-16T06:02:50.657Z,92872.00
2022-11-16T06:06:57.987Z,92874.00
2022-11-16T06:11:36.502Z,92873.00
2022-11-16T06:15:40.843Z,92878.00
2022-11-16T06:19:44.488Z,92865.00
2022-11-16T06:23:47.070Z,92863.00
2022-11-16T06:28:15.553Z,92869.00
2022-11-16T06:33:21.046Z,92874.00
2022-11-16T06:37:22.885Z,92869.00
2022-11-16T06:41:51.340Z,92868.00
2022-11-16T06:45:57.812Z,92869.00
2022-11-16T06:50:58.452Z,92872.00
2022-11-16T06:55:51.094Z,92877.00
2022-11-16T06:59:55.469Z,92871.00
2022-11-16T07:04:05.969Z,92874.00
2022-11-16T07:08:13.629Z,92889.00
2022-11-16T07:12:31.219Z,92880.00
2022-11-16T07:17:01.881Z,92885.00
2022-11-16T07:21:11.446Z,92891.00
2022-11-16T07:25:14.070Z,92876.00
2022-11-16T07:29:16.189Z,92885.00
2022-11-16T07:33:40.912Z,92879.00
2022-11-16T07:38:08.347Z,92889.00
2022-11-16T07:42:12.104Z,92907.00
2022-11-16T07:46:46.419Z,92901.00
2022-11-16T07:50:49.901Z,92895.00
2022-11-16T07:55:11.594Z,92890.00
2022-11-16T07:59:14.970Z,92896.00
2022-11-16T08:03:29.291Z,92904.00
2022-11-16T08:08:41.653Z,92904.00
2022-11-16T08:13:34.420Z,92884.00
2022-11-16T08:17:37.612Z,92895.00
2022-11-16T08:21:40.936Z,92904.00
2022-11-16T08:25:47.628Z,92904.00
2022-11-16T08:29:49.659Z,92910.00
2022-11-16T08:33:54.240Z,92912.00
2022-11-16T08:37:57.712Z,92920.00
2022-11-16T08:42:01.707Z,92910.00
2022-11-16T08:46:03.695Z,92922.00
2022-11-16T08:50:06.076Z,92928.00
2022-11-16T08:54:23.174Z,92926.00
2022-11-16T08:58:26.201Z,92934.00
2022-11-16T09:02:28.256Z,92936.00
2022-11-16T09:06:30.339Z,92945.00
2022-11-16T09:10:38.621Z,92941.00
2022-11-16T09:14:40.626Z,92943.00
2022-11-16T09:19:08.198Z,92940.00
2022-11-16T09:28:38.539Z,92945.00
2022-11-16T09:32:40.594Z,92948.00
2022-11-16T09:36:42.684Z,92953.00
2022-11-16T09:40:46.995Z,92958.00
2022-11-16T09:44:58.349Z,92963.00
2022-11-16T09:49:16.846Z,92958.00
2022-11-16T09:53:27.500Z,92953.00
2022-11-16T09:57:37.393Z,92950.00
2022-11-16T10:02:39.526Z,92950.00
2022-11-16T10:07:02.182Z,92948.00
2022-11-16T10:11:38.335Z,92943.00
2022-11-16T10:15:46.347Z,92938.00
2022-11-16T10:20:09.646Z,92929.00
2022-11-16T10:24:35.939Z,92919.00
2022-11-16T10:29:08.613Z,92920.00
2022-11-16T10:33:17.109Z,92921.00
2022-11-16T10:37:20.722Z,92911.00
2022-11-16T10:46:38.178Z,92902.00
2022-11-16T10:51:01.866Z,92904.00
2022-11-16T10:55:31.283Z,92898.00
2022-11-16T10:59:45.454Z,92889.00
2022-11-16T11:03:50.911Z,92889.00
2022-11-16T11:08:04.351Z,92899.00
2022-11-16T11:12:53.804Z,92887.00
2022-11-16T11:18:11.176Z,92880.00
2022-11-16T11:22:17.484Z,92875.00
2022-11-16T11:26:40.272Z,92868.00
2022-11-16T11:30:59.366Z,92871.00
2022-11-16T11:35:03.615Z,92871.00
2022-11-16T11:39:16.751Z,92868.00
2022-11-16T11:43:23.846Z,92870.00
2022-11-16T11:47:59.071Z,92855.00
2022-11-16T11:52:51.996Z,92860.00
2022-11-16T11:56:54.008Z,92858.00
2022-11-16T12:01:08.201Z,92852.00
2022-11-16T12:05:26.285Z,92853.00
2022-11-16T12:09:47.769Z,92846.00
2022-11-16T12:14:01.980Z,92842.00
2022-11-16T12:18:31.333Z,92839.00
2022-11-16T12:22:53.026Z,92834.00
2022-11-16T12:27:21.141Z,92828.00
2022-11-16T12:31:35.197Z,92829.00
2022-11-16T12:35:59.850Z,92826.00
2022-11-16T12:40:36.523Z,92826.00
2022-11-16T12:45:07.174Z,92826.00
2022-11-16T12:49:35.480Z,92824.00
2022-11-16T12:54:13.613Z,92830.00
2022-11-16T12:58:30.934Z,92830.00
2022-11-16T13:08:53.781Z,92832.00
2022-11-16T13:13:35.028Z,92835.00
2022-11-16T13:17:38.624Z,92832.00
2022-11-16T13:22:07.021Z,92830.00
2022-11-16T13:26:43.968Z,92832.00
2022-11-16T13:31:00.426Z,92821.00
2022-11-16T13:35:06.927Z,92827.00
2022-11-16T13:39:53.077Z,92830.00
2022-11-16T13:43:55.850Z,92818.00
2022-11-16T13:47:59.093Z,92820.00
2022-11-16T13:52:22.489Z,92815.00
2022-11-16T14:02:28.605Z,92812.00
2022-11-16T14:06:42.951Z,92815.00
2022-11-16T14:10:45.000Z,92800.00
2022-11-16T14:15:42.905Z,92805.00
2022-11-16T14:19:45.328Z,92811.00
2022-11-16T14:23:56.686Z,92798.00
2022-11-16T14:28:11.839Z,92808.00
2022-11-16T14:32:18.981Z,92795.00
2022-11-16T14:36:46.809Z,92792.00
2022-11-16T14:40:58.959Z,92785.00
2022-11-16T14:45:46.356Z,92779.00
2022-11-16T14:49:48.859Z,92778.00
2022-11-16T14:53:55.393Z,92775.00
2022-11-16T14:58:16.764Z,92781.00
2022-11-16T15:02:23.195Z,92774.00
2022-11-16T15:06:27.032Z,92772.00
2022-11-16T15:10:29.638Z,92770.00
2022-11-16T15:14:37.208Z,92765.00
2022-11-16T15:19:28.859Z,92764.00
2022-11-16T15:23:31.070Z,92765.00
2022-11-16T15:27:41.655Z,92760.00
2022-11-16T15:31:44.284Z,92766.00
2022-11-16T15:35:47.420Z,92767.00
2022-11-16T15:39:49.428Z,92761.00
2022-11-16T15:44:13.273Z,92763.00
2022-11-16T15:49:17.492Z,92767.00
2022-11-16T15:53:41.950Z,92758.00
2022-11-16T15:58:14.874Z,92764.00
2022-11-16T16:02:22.737Z,92756.00
2022-11-16T16:12:28.440Z,92761.00
2022-11-16T16:16:42.463Z,92769.00
2022-11-16T16:20:48.593Z,92770.00
2022-11-16T16:24:50.802Z,92773.00
2022-11-16T16:28:58.717Z,92767.00
2022-11-16T16:33:02.249Z,92781.00
2022-11-16T16:37:04.567Z,92778.00
2022-11-16T16:41:07.080Z,92765.00
2022-11-16T16:45:38.909Z,92777.00
2022-11-16T16:49:41.309Z,92766.00
2022-11-16T16:54:38.256Z,92770.00
2022-11-16T16:58:40.353Z,92766.00
2022-11-16T17:02:42.313Z,92767.00
2022-11-16T17:06:46.578Z,92759.00
2022-11-16T17:10:59.844Z,92754.00
2022-11-16T17:15:02.057Z,92761.00
2022-11-16T17:19:04.985Z,92756.00
2022-11-16T17:23:11.616Z,92753.00
2022-11-16T17:27:13.506Z,92756.00
2022-11-16T17:31:43.947Z,92760.00
2022-11-16T17:35:57.655Z,92760.00
2022-11-16T17:39:59.752Z,92762.00
2022-11-16T17:44:01.631Z,92763.00
2022-11-16T17:48:03.714Z,92753.00
2022-11-16T17:52:06.282Z,92758.00
2022-11-16T17:56:08.505Z,92751.00
2022-11-16T18:00:11.091Z,92757.00
2022-11-16T18:04:13.057Z,92760.00
2022-11-16T18:08:14.901Z,92758.00
2022-11-16T18:12:16.735Z,92760.00
2022-11-16T18:16:21.234Z,92759.00
2022-11-16T18:20:24.444Z,92769.00
2022-11-16T18:24:26.339Z,92762.00
2022-11-16T18:29:19.394Z,92766.00
2022-11-16T18:33:21.208Z,92764.00
2022-11-16T18:37:23.054Z,92775.00
2022-11-16T18:41:27.696Z,92770.00
2022-11-16T18:45:29.642Z,92755.00
2022-11-16T18:49:32.632Z,92758.00
2022-11-16T18:53:41.977Z,92753.00
2022-11-16T18:57:46.070Z,92745.00
2022-11-16T19:01:47.917Z,92750.00
2022-11-16T19:05:57.810Z,92741.00
2022-11-16T19:10:19.174Z,92744.00
2022-11-16T19:14:21.327Z,92738.00
2022-11-16T19:18:27.243Z,92734.00
2022-11-16T19:22:33.297Z,92744.00
2022-11-16T19:27:32.240Z,92745.00
2022-11-16T19:32:24.129Z,92745.00
2022-11-16T19:36:51.160Z,92744.00
2022-11-16T19:41:03.598Z,92732.00
2022-11-16T19:45:06.003Z,92737.00
2022-11-16T19:49:19.496Z,92742.00
2022-11-16T19:53:21.840Z,92746.00
2022-11-16T19:57:42.961Z,92742.00
2022-11-16T20:02:11.237Z,92738.00
2022-11-16T20:06:22.661Z,92737.00
2022-11-16T20:11:25.426Z,92726.00
2022-11-16T20:15:29.993Z,92720.00
2022-11-16T20:19:49.513Z,92724.00
2022-11-16T20:23:53.763Z,92711.00
2022-11-16T20:27:55.723Z,92714.00
2022-11-16T20:32:26.179Z,92713.00
2022-11-16T20:36:30.068Z,92709.00
2022-11-16T20:40:32.632Z,92702.00
2022-11-16T20:44:46.090Z,92710.00
2022-11-16T20:48:52.849Z,92702.00
2022-11-16T20:53:09.081Z,92706.00
2022-11-16T20:57:39.200Z,92701.00
2022-11-16T21:01:44.848Z,92699.00
2022-11-16T21:11:52.084Z,92690.00
2022-11-16T21:16:07.207Z,92691.00
2022-11-16T21:20:34.386Z,92677.00
2022-11-16T21:24:37.431Z,92684.00
2022-11-16T21:29:07.238Z,92683.00
2022-11-16T21:33:26.394Z,92681.00
2022-11-16T21:38:17.823Z,92682.00
2022-11-16T21:42:19.892Z,92676.00
2022-11-16T21:46:24.953Z,92678.00
2022-11-16T21:55:35.543Z,92683.00
2022-11-16T22:00:06.523Z,92685.00
2022-11-16T22:04:31.748Z,92689.00
2022-11-16T22:08:33.621Z,92695.00
2022-11-16T22:12:36.025Z,92691.00
2022-11-16T22:17:03.437Z,92688.00
2022-11-16T22:21:08.664Z,92695.00
2022-11-16T22:25:11.100Z,92693.00
2022-11-16T22:29:23.430Z,92692.00
2022-11-16T22:33:55.377Z,92695.00
2022-11-16T22:38:05.438Z,92687.00
2022-11-16T22:42:11.592Z,92688.00
2022-11-16T22:46:21.508Z,92690.00
2022-11-16T22:50:27.307Z,92691.00
2022-11-16T22:54:30.328Z,92687.00
2022-11-16T22:58:32.386Z,92690.00
2022-11-16T23:02:34.492Z,92694.00
2022-11-16T23:06:37.811Z,92689.00
2022-11-16T23:11:30.254Z,92693.00
2022-11-16T23:16:03.309Z,92683.00
2022-11-16T23:20:24.254Z,92689.00
2022-11-16T23:29:05.949Z,92689.00
2022-11-16T23:33:08.153Z,92688.00
2022-11-16T23:37:14.232Z,92680.00
2022-11-16T23:41:35.840Z,92677.00
2022-11-16T23:45:45.258Z,92677.00
2022-11-16T23:50:14.156Z,92676.00
2022-11-16T23:54:16.022Z,92666.00
2022-11-16T23:58:17.903Z,92669.00
